Fairport, NY (14450)

5:11 PM EST on January 17, 2017 (GMT -0500)
| | Change Station

Elev -9999 ft 0.00 °N, 0.00 °E | Updated 5 minutes ago

Overcast
Overcast
°F
Feels Like °F
N
Wind Variable Wind from North
Gusts mph

Today
High -- | Low -- °F
--% Chance of Precip.
Yesterday
High -- | Low -- °F
Precip. -- in
Pressure 29.82 in
Visibility 10.0 miles
Clouds Few 700 ft
Mostly Cloudy 1700 ft
Mostly Cloudy 2600 ft
Overcast 15000 ft
Dew Point Not available.
Humidity Not available.
Rainfall --
Snow Depth Not available.
7:37 AM 5:03 PM
Waning Gibbous, 69% visible
METAR KROC 172154Z 15008KT 10SM -RA FEW007 BKN017 BKN026 OVC150 04/03 A2980 RMK AO2 SLP098 P0003 T00440033
Pressure 29.82 in
Visibility 10.0 miles
Clouds Few 700 ft
Mostly Cloudy 1700 ft
Mostly Cloudy 2600 ft
Overcast 15000 ft
Dew Point Not available.
Humidity Not available.
Rainfall --
Snow Depth Not available.
7:37 AM 5:03 PM
Waning Gibbous, 69% visible
METAR KROC 172154Z 15008KT 10SM -RA FEW007 BKN017 BKN026 OVC150 04/03 A2980 RMK AO2 SLP098 P0003 T00440033

Get Your Daily Forecast Email!

Thanks for signing up!

Be on the lookout for a verification email in your inbox.

You'll start receiving the daily forecast at 8 AM.

×

10-Day Weather Forecast

Almanac

Astronomy

Jan. 17, 2017 Rise Set
Actual Time
Civil Twilight
Nautical Twilight
Astronomical Twilight
Moon
Length of Visible Light
Length of Day
Tomorrow will be .
, % of the Moon is Illuminated

Today's Extremes

State Highs State Lows

Community

WunderPhotos

Upload Photos

1,962,540 photos uploaded!

WunderBlog® & News

Nearby

Air Quality

  Air Quality AQ Index Pollutant
Not available.

Snow Depth

Station Depth Elevation

Earthquake Activity

City Distance Mag. Time & Date
Minimum magnitude displayed is 2.5.

Coastal Water Temperatures

Place Temperature

Stations

Nearby Weather Stations

Station Location Temp. Windchill Dew Point Humidity Wind Precip. Elev Updated Type
                   

Watches & Warnings

There are currently no watches in effect.